MAPA DE AEROPUERTO

INFORMACIÓN METAR y TAF


Deprecated: The each() function is deprecated. This message will be suppressed on further calls in /home/customer/www/clickair-va.com/public_html/VAM/vam/helpers/get_metar.php on line 20
METAR FOR EFRO
ADDS - METARS form results

(0407 UTC 25 May 2022)
Data provider http://aviationweather.gov/metar/data/
 
METAR text: EFRO 250350Z AUTO 14005KT CAVOK 10/M03 Q1013
Conditions at: EFRO (ROVANIEMI (CIV/M, FI) observed 0350 UTC 25 May 2022
Temperature: 10.0°C (50°F)
Dewpoint: -3.0°C (27°F) [RH = 40%]
Pressure (altimeter): 29.91 inches Hg (1013.0 mb)
Winds: from the SE (140 degrees) at 6 MPH (5 knots; 2.6 m/s)
Visibility: 6 or more miles (10+ km)
Ceiling: ceiling and visibility are OK
Clouds: unknown
Weather: no significant weather observed at this time

METAR text: EFRO 250320Z AUTO 13007KT CAVOK 10/M03 Q1013
Conditions at: EFRO (ROVANIEMI (CIV/M, FI) observed 0320 UTC 25 May 2022
Temperature: 10.0°C (50°F)
Dewpoint: -3.0°C (27°F) [RH = 40%]
Pressure (altimeter): 29.91 inches Hg (1013.0 mb)
Winds: from the SE (130 degrees) at 8 MPH (7 knots; 3.6 m/s)
Visibility: 6 or more miles (10+ km)
Ceiling: ceiling and visibility are OK
Clouds: unknown
Weather: no significant weather observed at this time

Forecast for: EFRO (ROVANIEMI (CIV/M, FI)
Text: TAF EFRO 250223Z 2503/2603 14008KT CAVOK
Forecast period: 0300 UTC 25 May 2022 to 0300 UTC 26 May 2022
Forecast type: FROM: standard forecast or significant change
Winds: from the SE (140 degrees) at 9 MPH (8 knots; 4.1 m/s)
Visibility: 6 or more miles (10+ km)
Ceiling: unknown
Clouds: missing
Weather: NSW  (no significant weather)